sensor_id;sensor_type;location;lat;lon;timestamp;pressure;altitude;pressure_sealevel;temperature;humidity
39141;BME280;24875;48.436;10.298;2023-02-04T00:01:34;97318.63;;;6.16;100.00
39141;BME280;24875;48.436;10.298;2023-02-04T00:04:01;97318.69;;;6.26;100.00
39141;BME280;24875;48.436;10.298;2023-02-04T00:06:29;97311.22;;;6.21;100.00
39141;BME280;24875;48.436;10.298;2023-02-04T00:08:55;97301.56;;;6.22;100.00
39141;BME280;24875;48.436;10.298;2023-02-04T00:11:22;97302.66;;;6.19;100.00
39141;BME280;24875;48.436;10.298;2023-02-04T00:13:48;97306.94;;;6.20;100.00
39141;BME280;24875;48.436;10.298;2023-02-04T00:16:14;97299.53;;;6.25;100.00
39141;BME280;24875;48.436;10.298;2023-02-04T00:18:41;97302.63;;;6.30;100.00
39141;BME280;24875;48.436;10.298;2023-02-04T00:21:07;97297.44;;;6.40;100.00
39141;BME280;24875;48.436;10.298;2023-02-04T00:23:35;97307.34;;;6.57;100.00
39141;BME280;24875;48.436;10.298;2023-02-04T00:26:02;97310.69;;;6.59;100.00
39141;BME280;24875;48.436;10.298;2023-02-04T00:28:28;97313.38;;;6.68;100.00
39141;BME280;24875;48.436;10.298;2023-02-04T00:30:55;97306.84;;;6.83;100.00
39141;BME280;24875;48.436;10.298;2023-02-04T00:33:21;97314.75;;;6.92;100.00
39141;BME280;24875;48.436;10.298;2023-02-04T00:35:48;97316.06;;;6.98;100.00
39141;BME280;24875;48.436;10.298;2023-02-04T00:38:14;97319.91;;;6.94;100.00
39141;BME280;24875;48.436;10.298;2023-02-04T00:40:42;97330.75;;;7.10;100.00
39141;BME280;24875;48.436;10.298;2023-02-04T00:43:09;97334.53;;;7.17;100.00
39141;BME280;24875;48.436;10.298;2023-02-04T00:45:35;97340.84;;;7.14;100.00
39141;BME280;24875;48.436;10.298;2023-02-04T00:48:02;97329.91;;;7.09;100.00
39141;BME280;24875;48.436;10.298;2023-02-04T00:50:28;97335.06;;;7.20;100.00
39141;BME280;24875;48.436;10.298;2023-02-04T00:52:55;97317.66;;;7.19;100.00
39141;BME280;24875;48.436;10.298;2023-02-04T00:55:23;97312.56;;;7.18;100.00
39141;BME280;24875;48.436;10.298;2023-02-04T00:57:51;97307.09;;;7.21;100.00
39141;BME280;24875;48.436;10.298;2023-02-04T01:00:18;97314.50;;;7.16;100.00
39141;BME280;24875;48.436;10.298;2023-02-04T01:02:44;97316.69;;;7.11;100.00
39141;BME280;24875;48.436;10.298;2023-02-04T01:05:11;97317.81;;;7.18;100.00
39141;BME280;24875;48.436;10.298;2023-02-04T01:07:37;97319.09;;;7.23;100.00
39141;BME280;24875;48.436;10.298;2023-02-04T01:10:04;97327.03;;;7.12;100.00
39141;BME280;24875;48.436;10.298;2023-02-04T01:12:31;97309.00;;;7.19;100.00
39141;BME280;24875;48.436;10.298;2023-02-04T01:14:59;97320.25;;;7.39;100.00
39141;BME280;24875;48.436;10.298;2023-02-04T01:17:25;97332.50;;;7.29;100.00
39141;BME280;24875;48.436;10.298;2023-02-04T01:19:52;97323.66;;;7.30;100.00
39141;BME280;24875;48.436;10.298;2023-02-04T01:22:19;97324.09;;;7.35;100.00
39141;BME280;24875;48.436;10.298;2023-02-04T01:24:45;97331.28;;;7.33;100.00
39141;BME280;24875;48.436;10.298;2023-02-04T01:27:13;97341.78;;;7.33;100.00
39141;BME280;24875;48.436;10.298;2023-02-04T01:29:39;97347.25;;;7.30;100.00
39141;BME280;24875;48.436;10.298;2023-02-04T01:32:07;97346.81;;;7.46;100.00
39141;BME280;24875;48.436;10.298;2023-02-04T01:34:34;97350.38;;;7.45;100.00
39141;BME280;24875;48.436;10.298;2023-02-04T01:37:00;97351.34;;;7.44;100.00
39141;BME280;24875;48.436;10.298;2023-02-04T01:39:27;97366.06;;;7.35;100.00
39141;BME280;24875;48.436;10.298;2023-02-04T01:41:53;97365.59;;;7.30;100.00
39141;BME280;24875;48.436;10.298;2023-02-04T01:44:20;97368.69;;;7.35;100.00
39141;BME280;24875;48.436;10.298;2023-02-04T01:46:46;97375.59;;;7.36;100.00
39141;BME280;24875;48.436;10.298;2023-02-04T01:49:14;97373.41;;;7.41;100.00
39141;BME280;24875;48.436;10.298;2023-02-04T01:51:40;97378.72;;;7.30;100.00
39141;BME280;24875;48.436;10.298;2023-02-04T01:54:09;97384.72;;;7.42;100.00
39141;BME280;24875;48.436;10.298;2023-02-04T01:56:35;97389.91;;;7.32;100.00
39141;BME280;24875;48.436;10.298;2023-02-04T01:59:09;97389.66;;;7.35;100.00
39141;BME280;24875;48.436;10.298;2023-02-04T02:01:38;97390.97;;;7.21;100.00
39141;BME280;24875;48.436;10.298;2023-02-04T02:04:06;97391.09;;;6.99;100.00
39141;BME280;24875;48.436;10.298;2023-02-04T02:06:34;97392.59;;;7.22;100.00
39141;BME280;24875;48.436;10.298;2023-02-04T02:09:02;97390.34;;;7.08;100.00
39141;BME280;24875;48.436;10.298;2023-02-04T02:11:29;97392.50;;;7.03;100.00
39141;BME280;24875;48.436;10.298;2023-02-04T02:13:55;97406.81;;;6.99;100.00
39141;BME280;24875;48.436;10.298;2023-02-04T02:16:22;97405.59;;;7.03;100.00
39141;BME280;24875;48.436;10.298;2023-02-04T02:18:49;97413.00;;;6.98;100.00
39141;BME280;24875;48.436;10.298;2023-02-04T02:21:20;97414.34;;;7.13;100.00
39141;BME280;24875;48.436;10.298;2023-02-04T02:23:51;97422.53;;;6.99;100.00
39141;BME280;24875;48.436;10.298;2023-02-04T02:26:20;97425.84;;;7.01;100.00
39141;BME280;24875;48.436;10.298;2023-02-04T02:28:47;97428.88;;;6.96;100.00
39141;BME280;24875;48.436;10.298;2023-02-04T02:31:15;97437.34;;;6.89;100.00
39141;BME280;24875;48.436;10.298;2023-02-04T02:33:42;97444.66;;;6.74;100.00
39141;BME280;24875;48.436;10.298;2023-02-04T02:36:09;97452.31;;;6.66;100.00
39141;BME280;24875;48.436;10.298;2023-02-04T02:38:36;97445.94;;;6.49;100.00
39141;BME280;24875;48.436;10.298;2023-02-04T02:41:04;97443.75;;;6.65;100.00
39141;BME280;24875;48.436;10.298;2023-02-04T02:43:34;97449.09;;;6.63;100.00
39141;BME280;24875;48.436;10.298;2023-02-04T02:46:01;97442.50;;;6.48;100.00
39141;BME280;24875;48.436;10.298;2023-02-04T02:48:28;97444.97;;;6.50;100.00
39141;BME280;24875;48.436;10.298;2023-02-04T02:50:54;97445.25;;;6.47;100.00
39141;BME280;24875;48.436;10.298;2023-02-04T02:53:21;97447.63;;;6.39;100.00
39141;BME280;24875;48.436;10.298;2023-02-04T02:55:48;97450.38;;;6.37;100.00
39141;BME280;24875;48.436;10.298;2023-02-04T02:58:22;97453.66;;;6.50;100.00
39141;BME280;24875;48.436;10.298;2023-02-04T03:00:49;97446.31;;;6.44;100.00
39141;BME280;24875;48.436;10.298;2023-02-04T03:03:20;97458.88;;;6.61;100.00
39141;BME280;24875;48.436;10.298;2023-02-04T03:05:52;97465.31;;;6.57;100.00
39141;BME280;24875;48.436;10.298;2023-02-04T03:08:19;97472.50;;;6.44;100.00
39141;BME280;24875;48.436;10.298;2023-02-04T03:10:47;97479.88;;;6.39;100.00
39141;BME280;24875;48.436;10.298;2023-02-04T03:13:16;97479.75;;;6.41;100.00
39141;BME280;24875;48.436;10.298;2023-02-04T03:15:44;97473.22;;;6.35;100.00
39141;BME280;24875;48.436;10.298;2023-02-04T03:18:12;97475.00;;;6.46;100.00
39141;BME280;24875;48.436;10.298;2023-02-04T03:20:40;97479.75;;;6.30;100.00
39141;BME280;24875;48.436;10.298;2023-02-04T03:23:07;97490.84;;;6.33;100.00
39141;BME280;24875;48.436;10.298;2023-02-04T03:25:34;97487.28;;;6.34;100.00
39141;BME280;24875;48.436;10.298;2023-02-04T03:28:00;97497.88;;;6.33;100.00
39141;BME280;24875;48.436;10.298;2023-02-04T03:30:28;97491.78;;;6.43;100.00
39141;BME280;24875;48.436;10.298;2023-02-04T03:32:55;97492.13;;;6.50;100.00
39141;BME280;24875;48.436;10.298;2023-02-04T03:35:21;97488.56;;;6.51;100.00
39141;BME280;24875;48.436;10.298;2023-02-04T03:37:48;97500.56;;;6.53;100.00
39141;BME280;24875;48.436;10.298;2023-02-04T03:40:15;97506.75;;;6.52;100.00
39141;BME280;24875;48.436;10.298;2023-02-04T03:42:41;97512.97;;;6.40;100.00
39141;BME280;24875;48.436;10.298;2023-02-04T03:45:08;97519.84;;;6.41;100.00
39141;BME280;24875;48.436;10.298;2023-02-04T03:47:36;97511.66;;;6.46;100.00
39141;BME280;24875;48.436;10.298;2023-02-04T03:50:03;97522.47;;;6.52;100.00
39141;BME280;24875;48.436;10.298;2023-02-04T03:52:30;97521.53;;;6.53;100.00
39141;BME280;24875;48.436;10.298;2023-02-04T03:54:56;97522.94;;;6.46;100.00
39141;BME280;24875;48.436;10.298;2023-02-04T03:57:23;97524.38;;;6.39;100.00
39141;BME280;24875;48.436;10.298;2023-02-04T03:59:50;97528.53;;;6.53;100.00
39141;BME280;24875;48.436;10.298;2023-02-04T04:02:16;97537.22;;;6.53;100.00
39141;BME280;24875;48.436;10.298;2023-02-04T04:04:44;97532.22;;;6.61;100.00
39141;BME280;24875;48.436;10.298;2023-02-04T04:07:11;97531.50;;;6.59;100.00
39141;BME280;24875;48.436;10.298;2023-02-04T04:09:37;97529.25;;;6.44;100.00
39141;BME280;24875;48.436;10.298;2023-02-04T04:12:04;97535.44;;;6.43;100.00
39141;BME280;24875;48.436;10.298;2023-02-04T04:14:30;97536.16;;;6.56;100.00
39141;BME280;24875;48.436;10.298;2023-02-04T04:16:57;97534.34;;;6.56;100.00
39141;BME280;24875;48.436;10.298;2023-02-04T04:19:23;97541.41;;;6.45;100.00
39141;BME280;24875;48.436;10.298;2023-02-04T04:21:51;97530.09;;;6.33;100.00
39141;BME280;24875;48.436;10.298;2023-02-04T04:24:17;97531.66;;;6.36;100.00
39141;BME280;24875;48.436;10.298;2023-02-04T04:26:44;97547.59;;;6.22;100.00
39141;BME280;24875;48.436;10.298;2023-02-04T04:29:10;97551.75;;;6.13;100.00
39141;BME280;24875;48.436;10.298;2023-02-04T04:31:37;97552.00;;;6.10;100.00
39141;BME280;24875;48.436;10.298;2023-02-04T04:34:03;97554.00;;;5.96;100.00
39141;BME280;24875;48.436;10.298;2023-02-04T04:36:30;97550.44;;;5.97;100.00
39141;BME280;24875;48.436;10.298;2023-02-04T04:38:57;97553.16;;;5.96;100.00
39141;BME280;24875;48.436;10.298;2023-02-04T04:41:24;97557.28;;;5.76;100.00
39141;BME280;24875;48.436;10.298;2023-02-04T04:43:50;97557.91;;;5.80;100.00
39141;BME280;24875;48.436;10.298;2023-02-04T04:46:16;97551.44;;;5.73;100.00
39141;BME280;24875;48.436;10.298;2023-02-04T04:48:43;97564.25;;;5.65;100.00
39141;BME280;24875;48.436;10.298;2023-02-04T04:51:09;97562.31;;;5.56;100.00
39141;BME280;24875;48.436;10.298;2023-02-04T04:53:36;97578.47;;;5.50;100.00
39141;BME280;24875;48.436;10.298;2023-02-04T04:56:04;97577.31;;;5.54;100.00
39141;BME280;24875;48.436;10.298;2023-02-04T04:58:30;97572.19;;;5.52;100.00
39141;BME280;24875;48.436;10.298;2023-02-04T05:00:57;97573.19;;;5.39;100.00
39141;BME280;24875;48.436;10.298;2023-02-04T05:03:23;97576.63;;;5.29;100.00
39141;BME280;24875;48.436;10.298;2023-02-04T05:05:50;97579.22;;;5.29;100.00
39141;BME280;24875;48.436;10.298;2023-02-04T05:08:16;97583.72;;;5.27;100.00
39141;BME280;24875;48.436;10.298;2023-02-04T05:10:44;97582.47;;;5.32;100.00
39141;BME280;24875;48.436;10.298;2023-02-04T05:13:12;97586.44;;;5.25;100.00
39141;BME280;24875;48.436;10.298;2023-02-04T05:15:39;97593.09;;;5.18;100.00
39141;BME280;24875;48.436;10.298;2023-02-04T05:18:06;97601.41;;;5.00;100.00
39141;BME280;24875;48.436;10.298;2023-02-04T05:20:32;97607.47;;;5.00;100.00
39141;BME280;24875;48.436;10.298;2023-02-04T05:22:59;97609.34;;;4.98;100.00
39141;BME280;24875;48.436;10.298;2023-02-04T05:25:25;97618.34;;;4.94;100.00
39141;BME280;24875;48.436;10.298;2023-02-04T05:27:52;97617.84;;;5.13;100.00
39141;BME280;24875;48.436;10.298;2023-02-04T05:30:20;97629.66;;;5.18;100.00
39141;BME280;24875;48.436;10.298;2023-02-04T05:32:46;97628.41;;;5.11;100.00
39141;BME280;24875;48.436;10.298;2023-02-04T05:35:14;97617.09;;;5.23;100.00
39141;BME280;24875;48.436;10.298;2023-02-04T05:37:40;97637.69;;;5.15;100.00
39141;BME280;24875;48.436;10.298;2023-02-04T05:40:07;97629.44;;;5.21;100.00
39141;BME280;24875;48.436;10.298;2023-02-04T05:42:34;97628.94;;;5.16;100.00
39141;BME280;24875;48.436;10.298;2023-02-04T05:45:01;97627.06;;;5.18;100.00
39141;BME280;24875;48.436;10.298;2023-02-04T05:47:28;97637.22;;;5.34;100.00
39141;BME280;24875;48.436;10.298;2023-02-04T05:49:55;97637.78;;;5.26;100.00
39141;BME280;24875;48.436;10.298;2023-02-04T05:52:21;97633.72;;;5.22;100.00
39141;BME280;24875;48.436;10.298;2023-02-04T05:54:48;97641.72;;;5.08;100.00
39141;BME280;24875;48.436;10.298;2023-02-04T05:57:14;97647.59;;;4.99;100.00
39141;BME280;24875;48.436;10.298;2023-02-04T05:59:40;97642.03;;;4.68;100.00
39141;BME280;24875;48.436;10.298;2023-02-04T06:02:07;97656.44;;;4.74;100.00
39141;BME280;24875;48.436;10.298;2023-02-04T06:04:35;97659.13;;;4.72;100.00
39141;BME280;24875;48.436;10.298;2023-02-04T06:07:01;97668.34;;;4.65;100.00
39141;BME280;24875;48.436;10.298;2023-02-04T06:09:28;97670.97;;;4.53;100.00
39141;BME280;24875;48.436;10.298;2023-02-04T06:11:54;97669.50;;;4.36;100.00
39141;BME280;24875;48.436;10.298;2023-02-04T06:14:21;97669.31;;;4.27;100.00
39141;BME280;24875;48.436;10.298;2023-02-04T06:16:48;97674.66;;;4.25;100.00
39141;BME280;24875;48.436;10.298;2023-02-04T06:19:14;97667.94;;;4.34;100.00
39141;BME280;24875;48.436;10.298;2023-02-04T06:21:42;97667.53;;;4.40;100.00
39141;BME280;24875;48.436;10.298;2023-02-04T06:24:09;97670.56;;;4.34;100.00
39141;BME280;24875;48.436;10.298;2023-02-04T06:26:35;97671.06;;;4.39;100.00
39141;BME280;24875;48.436;10.298;2023-02-04T06:29:02;97675.25;;;4.54;100.00
39141;BME280;24875;48.436;10.298;2023-02-04T06:31:28;97672.94;;;4.62;100.00
39141;BME280;24875;48.436;10.298;2023-02-04T06:33:54;97683.28;;;4.63;100.00
39141;BME280;24875;48.436;10.298;2023-02-04T06:36:21;97688.41;;;4.65;100.00
39141;BME280;24875;48.436;10.298;2023-02-04T06:38:49;97695.59;;;4.74;100.00
39141;BME280;24875;48.436;10.298;2023-02-04T06:41:15;97705.53;;;4.69;100.00
39141;BME280;24875;48.436;10.298;2023-02-04T06:43:41;97705.31;;;4.84;100.00
39141;BME280;24875;48.436;10.298;2023-02-04T06:46:08;97707.81;;;4.85;100.00
39141;BME280;24875;48.436;10.298;2023-02-04T06:48:34;97706.75;;;4.88;100.00
39141;BME280;24875;48.436;10.298;2023-02-04T06:51:01;97708.09;;;4.93;100.00
39141;BME280;24875;48.436;10.298;2023-02-04T06:53:27;97708.84;;;4.95;100.00
39141;BME280;24875;48.436;10.298;2023-02-04T06:55:55;97708.38;;;5.01;100.00
39141;BME280;24875;48.436;10.298;2023-02-04T06:58:21;97718.53;;;4.93;100.00
39141;BME280;24875;48.436;10.298;2023-02-04T07:00:48;97722.59;;;4.97;100.00
39141;BME280;24875;48.436;10.298;2023-02-04T07:03:14;97723.75;;;4.93;100.00
39141;BME280;24875;48.436;10.298;2023-02-04T07:05:41;97731.19;;;4.87;100.00
39141;BME280;24875;48.436;10.298;2023-02-04T07:08:07;97733.50;;;4.91;100.00
39141;BME280;24875;48.436;10.298;2023-02-04T07:10:34;97733.28;;;4.94;100.00
39141;BME280;24875;48.436;10.298;2023-02-04T07:13:01;97740.47;;;5.16;100.00
39141;BME280;24875;48.436;10.298;2023-02-04T07:15:28;97734.50;;;5.01;100.00
39141;BME280;24875;48.436;10.298;2023-02-04T07:17:55;97738.91;;;5.13;100.00
39141;BME280;24875;48.436;10.298;2023-02-04T07:20:22;97747.03;;;5.21;100.00
39141;BME280;24875;48.436;10.298;2023-02-04T07:22:48;97747.03;;;5.21;100.00
39141;BME280;24875;48.436;10.298;2023-02-04T07:25:15;97748.25;;;5.28;100.00
39141;BME280;24875;48.436;10.298;2023-02-04T07:27:42;97745.84;;;5.38;100.00
39141;BME280;24875;48.436;10.298;2023-02-04T07:30:11;97747.78;;;5.46;100.00
39141;BME280;24875;48.436;10.298;2023-02-04T07:32:38;97757.44;;;5.46;100.00
39141;BME280;24875;48.436;10.298;2023-02-04T07:35:05;97766.91;;;5.47;100.00
39141;BME280;24875;48.436;10.298;2023-02-04T07:37:31;97764.94;;;5.38;100.00
39141;BME280;24875;48.436;10.298;2023-02-04T07:39:58;97767.78;;;5.35;100.00
39141;BME280;24875;48.436;10.298;2023-02-04T07:42:24;97770.44;;;5.23;100.00
39141;BME280;24875;48.436;10.298;2023-02-04T07:44:51;97778.88;;;5.39;100.00
39141;BME280;24875;48.436;10.298;2023-02-04T07:47:19;97773.03;;;5.58;100.00
39141;BME280;24875;48.436;10.298;2023-02-04T07:49:45;97777.69;;;5.55;100.00
39141;BME280;24875;48.436;10.298;2023-02-04T07:52:11;97772.19;;;5.70;100.00
39141;BME280;24875;48.436;10.298;2023-02-04T07:54:38;97782.53;;;5.72;100.00
39141;BME280;24875;48.436;10.298;2023-02-04T07:57:04;97784.72;;;5.78;100.00
39141;BME280;24875;48.436;10.298;2023-02-04T07:59:31;97791.19;;;5.85;100.00
39141;BME280;24875;48.436;10.298;2023-02-04T08:01:57;97791.91;;;5.87;100.00
39141;BME280;24875;48.436;10.298;2023-02-04T08:04:25;97803.44;;;6.07;100.00
39141;BME280;24875;48.436;10.298;2023-02-04T08:06:52;97806.38;;;6.03;100.00
39141;BME280;24875;48.436;10.298;2023-02-04T08:09:18;97808.00;;;6.16;100.00
39141;BME280;24875;48.436;10.298;2023-02-04T08:11:45;97811.28;;;6.07;98.82
39141;BME280;24875;48.436;10.298;2023-02-04T08:14:11;97817.81;;;6.25;98.15
39141;BME280;24875;48.436;10.298;2023-02-04T08:16:38;97821.78;;;6.18;94.79
39141;BME280;24875;48.436;10.298;2023-02-04T08:19:04;97821.59;;;6.21;95.96
39141;BME280;24875;48.436;10.298;2023-02-04T08:21:32;97829.28;;;6.35;93.98
39141;BME280;24875;48.436;10.298;2023-02-04T08:23:58;97830.16;;;6.23;95.45
39141;BME280;24875;48.436;10.298;2023-02-04T08:26:25;97832.31;;;6.29;93.98
39141;BME280;24875;48.436;10.298;2023-02-04T08:28:51;97834.69;;;6.21;92.25
39141;BME280;24875;48.436;10.298;2023-02-04T08:31:18;97835.22;;;6.37;92.79
39141;BME280;24875;48.436;10.298;2023-02-04T08:33:44;97840.91;;;6.31;91.20
39141;BME280;24875;48.436;10.298;2023-02-04T08:36:11;97846.88;;;6.33;92.22
39141;BME280;24875;48.436;10.298;2023-02-04T08:38:38;97841.56;;;6.46;92.62
39141;BME280;24875;48.436;10.298;2023-02-04T08:41:05;97843.06;;;6.37;91.55
39141;BME280;24875;48.436;10.298;2023-02-04T08:43:32;97837.56;;;6.29;90.74
39141;BME280;24875;48.436;10.298;2023-02-04T08:45:58;97837.63;;;6.40;91.58
39141;BME280;24875;48.436;10.298;2023-02-04T08:48:24;97835.28;;;6.48;94.29
39141;BME280;24875;48.436;10.298;2023-02-04T08:50:51;97841.03;;;6.64;93.41
39141;BME280;24875;48.436;10.298;2023-02-04T08:53:17;97834.22;;;6.62;91.84
39141;BME280;24875;48.436;10.298;2023-02-04T08:55:45;97842.63;;;6.77;92.42
39141;BME280;24875;48.436;10.298;2023-02-04T08:58:12;97840.50;;;6.48;91.27
39141;BME280;24875;48.436;10.298;2023-02-04T09:00:38;97844.88;;;6.37;90.79
39141;BME280;24875;48.436;10.298;2023-02-04T09:03:05;97849.25;;;6.36;91.07
39141;BME280;24875;48.436;10.298;2023-02-04T09:05:31;97846.69;;;6.47;92.31
39141;BME280;24875;48.436;10.298;2023-02-04T09:07:58;97867.56;;;6.36;91.65
39141;BME280;24875;48.436;10.298;2023-02-04T09:10:24;97866.31;;;6.42;90.38
39141;BME280;24875;48.436;10.298;2023-02-04T09:12:52;97867.75;;;6.46;90.94
39141;BME280;24875;48.436;10.298;2023-02-04T09:15:21;97865.28;;;6.55;91.77
39141;BME280;24875;48.436;10.298;2023-02-04T09:17:47;97858.66;;;6.62;90.72
39141;BME280;24875;48.436;10.298;2023-02-04T09:20:14;97856.78;;;6.75;89.63
39141;BME280;24875;48.436;10.298;2023-02-04T09:22:41;97861.91;;;6.76;89.27
39141;BME280;24875;48.436;10.298;2023-02-04T09:25:07;97848.44;;;6.81;87.26
39141;BME280;24875;48.436;10.298;2023-02-04T09:27:34;97853.69;;;6.81;86.52
39141;BME280;24875;48.436;10.298;2023-02-04T09:30:02;97863.03;;;6.96;88.17
39141;BME280;24875;48.436;10.298;2023-02-04T09:32:28;97866.72;;;6.93;86.25
39141;BME280;24875;48.436;10.298;2023-02-04T09:34:55;97867.19;;;6.98;88.81
39141;BME280;24875;48.436;10.298;2023-02-04T09:37:21;97875.25;;;6.84;92.16
39141;BME280;24875;48.436;10.298;2023-02-04T09:39:51;97880.56;;;6.72;91.75
39141;BME280;24875;48.436;10.298;2023-02-04T09:42:20;97886.81;;;6.82;90.78
39141;BME280;24875;48.436;10.298;2023-02-04T09:44:49;97885.00;;;6.71;89.20
39141;BME280;24875;48.436;10.298;2023-02-04T09:47:19;97885.13;;;6.81;88.80
39141;BME280;24875;48.436;10.298;2023-02-04T09:49:46;97884.16;;;6.71;86.10
39141;BME280;24875;48.436;10.298;2023-02-04T09:52:14;97875.06;;;6.87;86.10
39141;BME280;24875;48.436;10.298;2023-02-04T09:54:42;97883.78;;;6.99;88.60
39141;BME280;24875;48.436;10.298;2023-02-04T09:57:13;97880.84;;;7.14;87.29
39141;BME280;24875;48.436;10.298;2023-02-04T09:59:41;97886.16;;;7.13;88.62
39141;BME280;24875;48.436;10.298;2023-02-04T10:02:18;97890.22;;;7.06;88.48
39141;BME280;24875;48.436;10.298;2023-02-04T10:04:46;97887.03;;;6.79;86.80
39141;BME280;24875;48.436;10.298;2023-02-04T10:07:21;97878.91;;;7.16;91.34
39141;BME280;24875;48.436;10.298;2023-02-04T10:09:51;97886.44;;;7.31;84.88
39141;BME280;24875;48.436;10.298;2023-02-04T10:12:19;97889.06;;;7.31;84.86
39141;BME280;24875;48.436;10.298;2023-02-04T10:14:45;97895.50;;;7.27;87.07
39141;BME280;24875;48.436;10.298;2023-02-04T10:17:16;97895.16;;;7.43;84.92
39141;BME280;24875;48.436;10.298;2023-02-04T10:19:45;97899.44;;;7.33;82.54
39141;BME280;24875;48.436;10.298;2023-02-04T10:22:15;97900.28;;;7.33;84.75
39141;BME280;24875;48.436;10.298;2023-02-04T10:24:42;97901.44;;;7.19;86.12
39141;BME280;24875;48.436;10.298;2023-02-04T10:27:11;97905.00;;;7.18;83.35
39141;BME280;24875;48.436;10.298;2023-02-04T10:29:40;97898.78;;;6.97;88.22
39141;BME280;24875;48.436;10.298;2023-02-04T10:32:26;97904.47;;;6.91;88.33
39141;BME280;24875;48.436;10.298;2023-02-04T10:34:58;97908.31;;;6.74;89.60
39141;BME280;24875;48.436;10.298;2023-02-04T10:37:24;97902.72;;;6.68;86.46
39141;BME280;24875;48.436;10.298;2023-02-04T10:39:51;97905.00;;;6.72;88.37
39141;BME280;24875;48.436;10.298;2023-02-04T10:42:20;97896.09;;;6.86;90.10
39141;BME280;24875;48.436;10.298;2023-02-04T10:44:47;97897.25;;;6.71;87.32
39141;BME280;24875;48.436;10.298;2023-02-04T10:47:15;97897.78;;;6.87;89.72
39141;BME280;24875;48.436;10.298;2023-02-04T10:49:51;97895.69;;;7.03;87.80
39141;BME280;24875;48.436;10.298;2023-02-04T10:52:21;97891.53;;;6.77;89.19
39141;BME280;24875;48.436;10.298;2023-02-04T10:54:48;97893.03;;;6.58;89.37
39141;BME280;24875;48.436;10.298;2023-02-04T10:57:17;97893.59;;;6.73;91.75
39141;BME280;24875;48.436;10.298;2023-02-04T10:59:45;97895.75;;;6.56;93.43
39141;BME280;24875;48.436;10.298;2023-02-04T11:02:40;97901.69;;;6.47;93.64
39141;BME280;24875;48.436;10.298;2023-02-04T11:05:11;97902.22;;;6.40;91.85
39141;BME280;24875;48.436;10.298;2023-02-04T11:07:39;97898.66;;;6.41;91.65
39141;BME280;24875;48.436;10.298;2023-02-04T11:10:11;97893.66;;;6.61;90.22
39141;BME280;24875;48.436;10.298;2023-02-04T11:12:41;97899.44;;;6.54;91.75
39141;BME280;24875;48.436;10.298;2023-02-04T11:15:35;97887.47;;;6.62;93.61
39141;BME280;24875;48.436;10.298;2023-02-04T11:18:04;97886.59;;;6.62;90.83
39141;BME280;24875;48.436;10.298;2023-02-04T11:20:33;97888.34;;;6.73;91.68
39141;BME280;24875;48.436;10.298;2023-02-04T11:23:16;97891.47;;;6.55;94.29
39141;BME280;24875;48.436;10.298;2023-02-04T11:26:02;97893.41;;;6.64;92.37
39141;BME280;24875;48.436;10.298;2023-02-04T11:28:39;97892.41;;;6.88;90.67
39141;BME280;24875;48.436;10.298;2023-02-04T11:31:13;97893.59;;;6.84;92.35
39141;BME280;24875;48.436;10.298;2023-02-04T11:33:41;97888.03;;;7.00;90.80
39141;BME280;24875;48.436;10.298;2023-02-04T11:36:09;97886.84;;;7.04;90.98
39141;BME280;24875;48.436;10.298;2023-02-04T11:38:42;97884.22;;;6.93;91.56
39141;BME280;24875;48.436;10.298;2023-02-04T11:41:14;97883.91;;;7.08;93.18
39141;BME280;24875;48.436;10.298;2023-02-04T11:43:42;97876.97;;;7.07;91.57
39141;BME280;24875;48.436;10.298;2023-02-04T11:46:11;97872.84;;;7.16;92.38
39141;BME280;24875;48.436;10.298;2023-02-04T11:48:40;97881.16;;;6.99;91.97
39141;BME280;24875;48.436;10.298;2023-02-04T11:51:11;97881.34;;;6.85;91.49
39141;BME280;24875;48.436;10.298;2023-02-04T11:53:41;97889.47;;;6.93;91.95
39141;BME280;24875;48.436;10.298;2023-02-04T11:56:15;97886.41;;;6.99;86.24
39141;BME280;24875;48.436;10.298;2023-02-04T11:58:42;97890.16;;;6.84;90.40
39141;BME280;24875;48.436;10.298;2023-02-04T12:01:15;97889.16;;;6.74;88.95
39141;BME280;24875;48.436;10.298;2023-02-04T12:03:45;97885.28;;;6.90;90.86
39141;BME280;24875;48.436;10.298;2023-02-04T12:06:19;97887.50;;;7.29;88.82
39141;BME280;24875;48.436;10.298;2023-02-04T12:08:48;97870.72;;;7.42;88.73
39141;BME280;24875;48.436;10.298;2023-02-04T12:11:23;97873.84;;;7.47;85.89
39141;BME280;24875;48.436;10.298;2023-02-04T12:13:52;97871.44;;;7.88;84.67
39141;BME280;24875;48.436;10.298;2023-02-04T12:16:20;97870.94;;;7.72;83.69
39141;BME280;24875;48.436;10.298;2023-02-04T12:18:47;97868.81;;;7.77;80.93
39141;BME280;24875;48.436;10.298;2023-02-04T12:21:14;97877.97;;;8.04;79.56
39141;BME280;24875;48.436;10.298;2023-02-04T12:23:41;97871.19;;;7.80;80.11
39141;BME280;24875;48.436;10.298;2023-02-04T12:26:09;97870.50;;;7.56;81.49
39141;BME280;24875;48.436;10.298;2023-02-04T12:28:36;97873.47;;;7.63;78.28
39141;BME280;24875;48.436;10.298;2023-02-04T12:31:02;97873.34;;;7.64;78.08
39141;BME280;24875;48.436;10.298;2023-02-04T12:33:29;97882.16;;;7.63;78.81
39141;BME280;24875;48.436;10.298;2023-02-04T12:35:55;97883.13;;;7.73;78.11
39141;BME280;24875;48.436;10.298;2023-02-04T12:38:22;97891.72;;;7.75;77.45
39141;BME280;24875;48.436;10.298;2023-02-04T12:40:48;97889.91;;;7.97;75.16
39141;BME280;24875;48.436;10.298;2023-02-04T12:43:16;97884.69;;;7.76;76.54
39141;BME280;24875;48.436;10.298;2023-02-04T12:45:42;97887.75;;;7.91;78.11
39141;BME280;24875;48.436;10.298;2023-02-04T12:48:10;97889.91;;;7.86;81.52
39141;BME280;24875;48.436;10.298;2023-02-04T12:50:37;97896.72;;;7.56;78.26
39141;BME280;24875;48.436;10.298;2023-02-04T12:53:04;97901.94;;;7.45;80.11
39141;BME280;24875;48.436;10.298;2023-02-04T12:55:30;97902.31;;;7.41;81.41